createdAt,value
2018-07-22T00:01:31.991Z,96.96
2018-07-22T00:03:59.164Z,96.71
2018-07-22T00:06:26.311Z,97.11
2018-07-22T00:08:53.776Z,97.35
2018-07-22T00:11:20.930Z,98.31
2018-07-22T00:13:48.063Z,97.50
2018-07-22T00:16:15.176Z,98.09
2018-07-22T00:18:42.331Z,97.80
2018-07-22T00:21:09.481Z,98.39
2018-07-22T00:23:36.581Z,98.71
2018-07-22T00:26:03.814Z,99.79
2018-07-22T00:28:30.987Z,100.00
2018-07-22T00:30:58.248Z,100.00
2018-07-22T00:33:25.384Z,100.00
2018-07-22T00:35:52.516Z,100.00
2018-07-22T00:38:19.652Z,100.00
2018-07-22T00:40:46.811Z,100.00
2018-07-22T00:43:13.975Z,100.00
2018-07-22T00:45:41.164Z,99.86
2018-07-22T00:48:08.305Z,98.97
2018-07-22T00:50:35.416Z,100.00
2018-07-22T00:53:02.599Z,100.00
2018-07-22T00:55:29.835Z,100.00
2018-07-22T00:57:57.004Z,100.00
2018-07-22T01:00:24.181Z,100.00
2018-07-22T01:02:51.284Z,100.00
2018-07-22T01:05:18.460Z,100.00
2018-07-22T01:07:45.593Z,100.00
2018-07-22T01:10:12.768Z,100.00
2018-07-22T01:12:39.900Z,100.00
2018-07-22T01:15:07.092Z,100.00
2018-07-22T01:17:34.243Z,100.00
2018-07-22T01:20:08.948Z,100.00
2018-07-22T01:22:36.072Z,100.00
2018-07-22T01:25:04.268Z,100.00
2018-07-22T01:27:31.603Z,100.00
2018-07-22T01:29:58.760Z,100.00
2018-07-22T01:32:25.896Z,100.00
2018-07-22T01:34:53.052Z,100.00
2018-07-22T01:37:20.216Z,100.00
2018-07-22T01:39:47.731Z,100.00
2018-07-22T01:42:14.883Z,100.00
2018-07-22T01:44:42.069Z,100.00
2018-07-22T01:47:09.229Z,100.00
2018-07-22T01:49:36.380Z,100.00
2018-07-22T01:52:03.510Z,100.00
2018-07-22T01:54:30.679Z,100.00
2018-07-22T01:56:57.815Z,100.00
2018-07-22T01:59:24.981Z,100.00
2018-07-22T02:01:52.163Z,100.00
2018-07-22T02:04:19.300Z,100.00
2018-07-22T02:06:46.432Z,100.00
2018-07-22T02:09:13.592Z,100.00
2018-07-22T02:11:40.720Z,100.00
2018-07-22T02:14:08.291Z,100.00
2018-07-22T02:16:35.547Z,100.00
2018-07-22T02:19:02.726Z,100.00
2018-07-22T02:21:29.892Z,100.00
2018-07-22T02:23:57.036Z,100.00
2018-07-22T02:26:24.299Z,100.00
2018-07-22T02:28:51.428Z,100.00
2018-07-22T02:31:18.553Z,100.00
2018-07-22T02:33:45.679Z,100.00
2018-07-22T02:36:12.916Z,100.00
2018-07-22T02:38:40.084Z,100.00
2018-07-22T02:41:07.221Z,100.00
2018-07-22T02:43:34.392Z,100.00
2018-07-22T02:46:01.560Z,100.00
2018-07-22T02:48:28.736Z,100.00
2018-07-22T02:50:55.859Z,100.00
2018-07-22T02:53:23.048Z,100.00
2018-07-22T02:55:50.235Z,100.00
2018-07-22T02:58:17.536Z,100.00
2018-07-22T03:00:44.676Z,100.00
2018-07-22T03:03:11.867Z,100.00
2018-07-22T03:05:38.984Z,100.00
2018-07-22T03:08:06.161Z,100.00
2018-07-22T03:10:33.372Z,100.00
2018-07-22T03:13:00.572Z,100.00
2018-07-22T03:15:27.716Z,100.00
2018-07-22T03:17:54.852Z,100.00
2018-07-22T03:20:22.040Z,100.00
2018-07-22T03:22:49.203Z,100.00
2018-07-22T03:25:16.300Z,100.00
2018-07-22T03:27:43.428Z,100.00
2018-07-22T03:30:10.588Z,100.00
2018-07-22T03:32:37.699Z,100.00
2018-07-22T03:35:05.268Z,100.00
2018-07-22T03:37:32.432Z,100.00
2018-07-22T03:39:59.596Z,100.00
2018-07-22T03:42:27.097Z,100.00
2018-07-22T03:44:54.280Z,100.00
2018-07-22T03:47:21.455Z,100.00
2018-07-22T03:49:48.544Z,100.00
2018-07-22T03:52:15.660Z,100.00
2018-07-22T03:54:43.102Z,100.00
2018-07-22T03:57:10.336Z,100.00
2018-07-22T03:59:37.464Z,100.00
2018-07-22T04:02:04.764Z,100.00
2018-07-22T04:04:31.937Z,100.00
2018-07-22T04:06:59.047Z,100.00
2018-07-22T04:09:26.166Z,100.00
2018-07-22T04:11:53.274Z,100.00
2018-07-22T04:14:20.403Z,100.00
2018-07-22T04:16:47.537Z,100.00
2018-07-22T04:19:14.689Z,100.00
2018-07-22T04:21:41.818Z,100.00
2018-07-22T04:24:08.948Z,100.00
2018-07-22T04:26:36.072Z,100.00
2018-07-22T04:29:03.213Z,100.00
2018-07-22T04:31:30.314Z,100.00
2018-07-22T04:33:57.416Z,100.00
2018-07-22T04:36:24.649Z,100.00
2018-07-22T04:38:51.805Z,100.00
2018-07-22T04:41:18.985Z,100.00
2018-07-22T04:43:46.132Z,100.00
2018-07-22T04:46:13.307Z,100.00
2018-07-22T04:48:40.445Z,100.00
2018-07-22T04:51:07.529Z,100.00
2018-07-22T04:53:34.658Z,100.00
2018-07-22T04:56:02.210Z,100.00
2018-07-22T04:58:29.379Z,100.00
2018-07-22T05:00:56.559Z,100.00
2018-07-22T05:03:23.715Z,100.00
2018-07-22T05:05:50.812Z,100.00
2018-07-22T05:08:17.973Z,100.00
2018-07-22T05:10:45.105Z,100.00
2018-07-22T05:13:12.224Z,100.00
2018-07-22T05:15:39.384Z,100.00
2018-07-22T05:18:06.552Z,100.00
2018-07-22T05:20:33.724Z,100.00
2018-07-22T05:23:00.812Z,100.00
2018-07-22T05:25:27.963Z,100.00
2018-07-22T05:27:55.100Z,100.00
2018-07-22T05:30:22.311Z,100.00
2018-07-22T05:32:49.423Z,100.00
2018-07-22T05:35:16.623Z,100.00
2018-07-22T05:37:43.836Z,100.00
2018-07-22T05:40:10.988Z,100.00
2018-07-22T05:42:38.125Z,100.00
2018-07-22T05:45:05.313Z,100.00
2018-07-22T05:47:32.499Z,100.00
2018-07-22T05:49:59.684Z,100.00
2018-07-22T05:52:26.805Z,100.00
2018-07-22T05:54:53.959Z,100.00
2018-07-22T05:57:21.108Z,100.00
2018-07-22T05:59:48.258Z,100.00
2018-07-22T06:02:15.429Z,100.00
2018-07-22T06:04:42.524Z,100.00
2018-07-22T06:07:09.705Z,100.00
2018-07-22T06:09:36.852Z,100.00
2018-07-22T06:12:03.991Z,100.00
2018-07-22T06:14:31.108Z,100.00
2018-07-22T06:16:58.249Z,100.00
2018-07-22T06:19:25.473Z,100.00
2018-07-22T06:21:52.627Z,100.00
2018-07-22T06:24:19.780Z,100.00
2018-07-22T06:26:46.985Z,100.00
2018-07-22T06:29:14.128Z,100.00
2018-07-22T06:31:41.258Z,100.00
2018-07-22T06:34:08.395Z,100.00
2018-07-22T06:36:35.576Z,100.00
2018-07-22T06:39:04.026Z,100.00
2018-07-22T06:41:31.225Z,100.00
2018-07-22T06:43:58.341Z,100.00
2018-07-22T06:46:25.448Z,100.00
2018-07-22T06:48:52.552Z,100.00
2018-07-22T06:51:19.705Z,100.00
2018-07-22T06:53:46.805Z,100.00
2018-07-22T06:56:14.031Z,100.00
2018-07-22T06:58:41.181Z,100.00
2018-07-22T07:01:08.345Z,100.00
2018-07-22T07:03:35.480Z,100.00
2018-07-22T07:06:02.572Z,100.00
2018-07-22T07:08:29.756Z,100.00
2018-07-22T07:10:56.963Z,100.00
2018-07-22T07:13:24.060Z,100.00
2018-07-22T07:15:51.300Z,100.00
2018-07-22T07:18:18.440Z,100.00
2018-07-22T07:20:45.628Z,100.00
2018-07-22T07:23:12.805Z,100.00
2018-07-22T07:25:40.008Z,100.00
2018-07-22T07:28:07.153Z,100.00
2018-07-22T07:30:34.328Z,100.00
2018-07-22T07:33:01.501Z,100.00
2018-07-22T07:35:28.798Z,100.00
2018-07-22T07:37:56.016Z,100.00
2018-07-22T07:40:23.216Z,100.00
2018-07-22T07:42:50.383Z,100.00
2018-07-22T07:45:17.550Z,100.00
2018-07-22T07:47:44.764Z,100.00
2018-07-22T07:50:11.992Z,100.00
2018-07-22T07:52:39.386Z,100.00
2018-07-22T07:55:06.580Z,100.00
2018-07-22T07:57:33.729Z,100.00
2018-07-22T08:00:00.885Z,100.00
2018-07-22T08:02:28.049Z,100.00
2018-07-22T08:04:55.230Z,100.00
2018-07-22T08:07:22.409Z,100.00
2018-07-22T08:09:49.583Z,100.00
2018-07-22T08:12:16.792Z,100.00
2018-07-22T08:14:44.021Z,100.00
2018-07-22T08:17:11.197Z,100.00
2018-07-22T08:19:38.328Z,100.00
2018-07-22T08:22:05.745Z,100.00
2018-07-22T08:24:32.930Z,100.00
2018-07-22T08:27:00.124Z,100.00
2018-07-22T08:29:31.234Z,100.00
2018-07-22T08:31:58.849Z,100.00
2018-07-22T08:34:26.024Z,100.00
2018-07-22T08:36:53.341Z,100.00
2018-07-22T08:39:22.728Z,100.00
2018-07-22T08:41:50.653Z,98.96
2018-07-22T08:44:17.799Z,98.83
2018-07-22T08:46:45.004Z,98.78
2018-07-22T08:49:12.191Z,99.01
2018-07-22T08:51:39.448Z,99.61
2018-07-22T08:54:06.663Z,99.22
2018-07-22T08:56:34.187Z,98.16
2018-07-22T08:59:01.536Z,100.00
2018-07-22T09:01:29.540Z,98.91
2018-07-22T09:03:56.740Z,99.24
2018-07-22T09:06:24.581Z,99.88
2018-07-22T09:08:51.785Z,99.81
2018-07-22T09:11:18.950Z,97.69
2018-07-22T09:13:46.093Z,99.16
2018-07-22T09:16:13.384Z,98.49
2018-07-22T09:18:40.616Z,97.66
2018-07-22T09:21:08.257Z,97.60
2018-07-22T09:23:35.445Z,96.89
2018-07-22T09:26:02.700Z,96.27
2018-07-22T09:28:29.898Z,94.42
2018-07-22T09:30:57.176Z,96.05
2018-07-22T09:33:24.383Z,93.76
2018-07-22T09:35:51.577Z,93.66
2018-07-22T09:38:18.791Z,92.13
2018-07-22T09:40:45.991Z,90.87
2018-07-22T09:43:13.143Z,91.04
2018-07-22T09:45:40.344Z,92.37
2018-07-22T09:48:07.669Z,91.77
2018-07-22T09:50:41.592Z,90.04
2018-07-22T09:53:08.763Z,91.04
2018-07-22T09:55:35.945Z,88.87
2018-07-22T09:58:03.168Z,89.44
2018-07-22T10:00:35.337Z,86.61
2018-07-22T10:03:02.519Z,87.77
2018-07-22T10:05:29.716Z,87.44
2018-07-22T10:07:57.050Z,86.46
2018-07-22T10:10:24.273Z,87.20
2018-07-22T10:12:51.440Z,86.14
2018-07-22T10:15:18.658Z,86.36
2018-07-22T10:17:45.828Z,85.03
2018-07-22T10:20:12.977Z,86.12
2018-07-22T10:22:40.316Z,87.17
2018-07-22T10:25:07.879Z,86.22
2018-07-22T10:27:35.153Z,84.09
2018-07-22T10:30:02.757Z,85.77
2018-07-22T10:32:29.909Z,85.61
2018-07-22T10:34:57.047Z,84.52
2018-07-22T10:37:24.467Z,83.78
2018-07-22T10:39:51.602Z,85.27
2018-07-22T10:42:18.765Z,83.97
2018-07-22T10:44:45.867Z,83.44
2018-07-22T10:47:13.075Z,85.74
2018-07-22T10:49:40.252Z,84.39
2018-07-22T10:52:07.420Z,83.30
2018-07-22T10:54:34.568Z,82.85
2018-07-22T10:57:01.700Z,81.20
2018-07-22T10:59:29.095Z,81.91
2018-07-22T11:01:56.208Z,81.21
2018-07-22T11:04:23.335Z,79.77
2018-07-22T11:06:50.531Z,78.46
2018-07-22T11:09:17.722Z,78.82
2018-07-22T11:11:44.888Z,79.94
2018-07-22T11:14:12.034Z,82.43
2018-07-22T11:16:39.217Z,80.67
2018-07-22T11:19:06.356Z,80.38
2018-07-22T11:21:33.532Z,79.85
2018-07-22T11:24:00.709Z,79.98
2018-07-22T11:26:27.943Z,77.52
2018-07-22T11:28:55.213Z,78.76
2018-07-22T11:31:22.300Z,78.44
2018-07-22T11:33:49.429Z,77.74
2018-07-22T11:36:16.599Z,77.94
2018-07-22T11:38:43.797Z,79.33
2018-07-22T11:41:10.992Z,76.39
2018-07-22T11:43:38.147Z,78.21
2018-07-22T11:46:05.336Z,76.50
2018-07-22T11:48:32.492Z,76.69
2018-07-22T11:50:59.637Z,74.04
2018-07-22T11:53:26.736Z,73.44
2018-07-22T11:55:53.916Z,76.73
2018-07-22T11:58:21.053Z,75.75
2018-07-22T12:00:49.060Z,73.92
2018-07-22T12:03:17.827Z,75.70
2018-07-22T12:05:44.966Z,76.51
2018-07-22T12:08:12.122Z,73.70
2018-07-22T12:10:39.396Z,73.88
2018-07-22T12:13:06.653Z,74.33
2018-07-22T12:15:33.828Z,70.95
2018-07-22T12:18:11.608Z,73.52
2018-07-22T12:20:39.096Z,70.60
2018-07-22T12:23:06.266Z,70.39
2018-07-22T12:25:33.529Z,70.60
2018-07-22T12:28:00.724Z,71.50
2018-07-22T12:30:27.881Z,67.48
2018-07-22T12:32:55.053Z,66.48
2018-07-22T12:35:22.333Z,65.61
2018-07-22T12:37:49.484Z,65.47
2018-07-22T12:40:16.702Z,64.71
2018-07-22T12:42:43.913Z,65.51
2018-07-22T12:45:11.180Z,63.90
2018-07-22T12:47:38.371Z,65.05
2018-07-22T12:50:05.571Z,65.39
2018-07-22T12:52:32.835Z,63.03
2018-07-22T12:55:00.033Z,62.53
2018-07-22T12:57:27.313Z,63.38
2018-07-22T12:59:54.539Z,65.71
2018-07-22T13:02:28.644Z,65.99
2018-07-22T13:04:55.785Z,67.03
2018-07-22T13:07:22.918Z,66.64
2018-07-22T13:09:50.123Z,65.84
2018-07-22T13:12:17.316Z,66.90
2018-07-22T13:14:44.544Z,65.25
2018-07-22T13:17:11.746Z,64.25
2018-07-22T13:19:38.913Z,65.44
2018-07-22T13:22:06.092Z,63.69
2018-07-22T13:24:33.259Z,61.50
2018-07-22T13:27:00.439Z,60.65
2018-07-22T13:29:27.601Z,62.37
2018-07-22T13:31:54.848Z,62.50
2018-07-22T13:34:22.026Z,61.88
2018-07-22T13:36:49.242Z,65.27
2018-07-22T13:39:16.412Z,66.31
2018-07-22T13:41:43.645Z,63.61
2018-07-22T13:44:10.830Z,66.78
2018-07-22T13:46:38.097Z,64.61
2018-07-22T13:49:05.417Z,63.61
2018-07-22T13:51:32.637Z,67.45
2018-07-22T13:53:59.794Z,68.23
2018-07-22T13:56:26.945Z,66.11
2018-07-22T13:58:54.101Z,65.02
2018-07-22T14:01:21.340Z,63.71
2018-07-22T14:03:48.572Z,65.23
2018-07-22T14:06:15.733Z,65.82
2018-07-22T14:08:42.907Z,66.19
2018-07-22T14:11:10.415Z,66.08
2018-07-22T14:13:37.623Z,65.33
2018-07-22T14:16:04.884Z,63.77
2018-07-22T14:18:32.080Z,66.10
2018-07-22T14:20:59.219Z,65.08
2018-07-22T14:23:26.375Z,65.22
2018-07-22T14:25:53.792Z,66.25
2018-07-22T14:28:21.193Z,64.91
2018-07-22T14:30:48.422Z,63.68
2018-07-22T14:33:15.608Z,65.09
2018-07-22T14:35:42.852Z,64.47
2018-07-22T14:38:10.049Z,64.28
2018-07-22T14:40:37.342Z,62.48
2018-07-22T14:43:04.919Z,61.31
2018-07-22T14:45:32.091Z,59.58
2018-07-22T14:47:59.300Z,61.65
2018-07-22T14:50:26.464Z,62.20
2018-07-22T14:52:53.746Z,61.81
2018-07-22T14:55:21.082Z,57.93
2018-07-22T14:57:48.287Z,61.76
2018-07-22T15:00:15.507Z,62.11
2018-07-22T15:02:42.646Z,63.68
2018-07-22T15:05:09.812Z,63.89
2018-07-22T15:07:37.028Z,63.33
2018-07-22T15:10:04.667Z,60.93
2018-07-22T15:12:31.877Z,59.99
2018-07-22T15:14:59.031Z,59.43
2018-07-22T15:17:26.197Z,59.16
2018-07-22T15:19:53.371Z,61.87
2018-07-22T15:22:20.559Z,59.84
2018-07-22T15:24:47.685Z,60.60
2018-07-22T15:27:14.888Z,60.57
2018-07-22T15:29:42.146Z,60.80
2018-07-22T15:32:09.384Z,62.21
2018-07-22T15:34:36.547Z,63.05
2018-07-22T15:37:03.866Z,62.28
2018-07-22T15:39:31.055Z,62.33
2018-07-22T15:41:58.255Z,60.65
2018-07-22T15:44:25.533Z,60.74
2018-07-22T15:46:52.756Z,63.88
2018-07-22T15:49:20.008Z,62.91
2018-07-22T16:04:51.810Z,62.55
2018-07-22T16:07:18.979Z,63.73
2018-07-22T16:09:52.996Z,65.51
2018-07-22T16:12:20.226Z,64.53
2018-07-22T16:14:47.454Z,66.92
2018-07-22T16:17:14.636Z,65.70
2018-07-22T16:19:44.801Z,64.96
2018-07-22T16:22:11.979Z,65.91
2018-07-22T16:24:45.984Z,66.13
2018-07-22T16:27:13.182Z,66.61
2018-07-22T16:29:40.482Z,65.79
2018-07-22T16:32:07.729Z,66.17
2018-07-22T16:34:35.161Z,65.21
2018-07-22T16:37:02.305Z,65.01
2018-07-22T16:39:29.476Z,65.99
2018-07-22T16:41:56.671Z,66.34
2018-07-22T16:44:23.867Z,66.96
2018-07-22T16:46:51.121Z,67.01
2018-07-22T16:49:18.284Z,68.18
2018-07-22T16:51:45.497Z,67.87
2018-07-22T16:54:13.462Z,68.88
2018-07-22T16:56:40.607Z,70.43
2018-07-22T16:59:07.858Z,70.54
2018-07-22T17:01:35.166Z,69.30
2018-07-22T17:04:02.343Z,70.81
2018-07-22T17:06:29.563Z,69.56
2018-07-22T17:08:56.741Z,70.87
2018-07-22T17:11:23.983Z,71.15
2018-07-22T17:13:51.136Z,71.91
2018-07-22T17:16:18.320Z,72.08
2018-07-22T17:18:45.612Z,72.33
2018-07-22T17:21:12.815Z,72.60
2018-07-22T17:23:39.984Z,72.04
2018-07-22T17:26:07.248Z,72.24
2018-07-22T17:28:34.475Z,72.84
2018-07-22T17:31:01.735Z,73.42
2018-07-22T17:33:28.932Z,73.27
2018-07-22T17:35:56.116Z,73.40
2018-07-22T17:38:23.342Z,73.12
2018-07-22T17:40:50.505Z,74.03
2018-07-22T17:43:17.738Z,72.77
2018-07-22T17:45:44.878Z,72.35
2018-07-22T17:48:12.053Z,73.51
2018-07-22T17:50:39.181Z,74.01
2018-07-22T17:53:06.353Z,75.05
2018-07-22T17:55:33.575Z,74.65
2018-07-22T17:58:00.740Z,74.75
2018-07-22T18:00:27.904Z,74.98
2018-07-22T18:03:33.879Z,74.18
2018-07-22T18:06:01.161Z,74.21
2018-07-22T18:08:28.415Z,74.75
2018-07-22T18:10:55.968Z,74.02
2018-07-22T18:13:23.127Z,73.97
2018-07-22T18:15:50.317Z,73.95
2018-07-22T18:18:17.456Z,73.38
2018-07-22T18:20:45.977Z,73.40
2018-07-22T18:23:13.259Z,73.79
2018-07-22T18:25:41.095Z,74.25
2018-07-22T18:28:08.282Z,74.38
2018-07-22T18:30:35.446Z,74.96
2018-07-22T18:33:02.649Z,75.21
2018-07-22T18:35:29.876Z,75.91
2018-07-22T18:37:57.577Z,76.40
2018-07-22T18:40:25.705Z,76.56
2018-07-22T18:42:53.670Z,75.40
2018-07-22T18:45:21.361Z,74.94
2018-07-22T18:47:48.930Z,75.28
2018-07-22T18:50:16.391Z,75.00
2018-07-22T18:52:43.900Z,74.94
2018-07-22T18:55:11.088Z,75.29
2018-07-22T18:57:39.089Z,75.47
2018-07-22T19:00:20.597Z,76.15
2018-07-22T19:02:48.127Z,75.39
2018-07-22T19:05:15.676Z,75.26
2018-07-22T19:07:43.174Z,75.57
2018-07-22T19:10:10.683Z,76.70
2018-07-22T19:12:37.952Z,76.81
2018-07-22T19:15:05.568Z,78.47
2018-07-22T19:17:32.845Z,78.95
2018-07-22T19:20:00.035Z,76.92
2018-07-22T19:22:27.236Z,77.14
2018-07-22T19:24:54.414Z,77.15
2018-07-22T19:27:21.684Z,76.68
2018-07-22T19:29:48.972Z,76.42
2018-07-22T19:32:16.172Z,77.99
2018-07-22T19:34:43.327Z,78.46
2018-07-22T19:37:10.469Z,79.96
2018-07-22T19:39:37.927Z,79.87
2018-07-22T19:42:05.461Z,79.29
2018-07-22T19:44:32.615Z,79.80
2018-07-22T19:46:59.803Z,79.97
2018-07-22T19:49:27.015Z,81.53
2018-07-22T19:51:54.171Z,81.71
2018-07-22T19:54:21.335Z,82.78
2018-07-22T19:56:48.518Z,83.33
2018-07-22T19:59:15.731Z,83.85
2018-07-22T20:01:43.048Z,86.88
2018-07-22T20:04:11.852Z,86.14
2018-07-22T20:06:39.316Z,86.64
2018-07-22T20:09:07.293Z,89.11
2018-07-22T20:11:34.661Z,90.12
2018-07-22T20:14:01.939Z,89.79
2018-07-22T20:16:29.121Z,87.88
2018-07-22T20:18:56.308Z,88.06
2018-07-22T20:21:23.581Z,89.91
2018-07-22T20:23:50.782Z,89.90
2018-07-22T20:26:18.008Z,89.81
2018-07-22T20:28:45.202Z,90.45
2018-07-22T20:31:12.346Z,90.40
2018-07-22T20:33:39.654Z,91.59
2018-07-22T20:36:06.863Z,91.85
2018-07-22T20:38:34.200Z,92.03
2018-07-22T20:41:01.393Z,91.58
2018-07-22T20:43:28.501Z,92.37
2018-07-22T20:45:55.717Z,91.91
2018-07-22T20:48:22.916Z,92.04
2018-07-22T20:50:50.033Z,90.54
2018-07-22T20:53:17.174Z,91.67
2018-07-22T20:55:44.313Z,93.21
2018-07-22T20:58:11.508Z,90.92
2018-07-22T21:00:38.673Z,92.88
2018-07-22T21:03:05.811Z,90.63
2018-07-22T21:05:33.256Z,90.59
2018-07-22T21:08:00.476Z,91.59
2018-07-22T21:10:27.580Z,92.12
2018-07-22T21:13:06.309Z,92.49
2018-07-22T21:15:33.526Z,92.74
2018-07-22T21:18:00.727Z,93.36
2018-07-22T21:20:27.860Z,93.28
2018-07-22T21:22:54.999Z,92.96
2018-07-22T21:25:22.176Z,92.83
2018-07-22T21:27:49.307Z,93.31
2018-07-22T21:30:16.499Z,92.85
2018-07-22T21:32:43.697Z,93.18
2018-07-22T21:35:10.915Z,93.20
2018-07-22T21:37:38.324Z,92.21
2018-07-22T21:40:05.771Z,92.48
2018-07-22T21:42:33.064Z,92.22
2018-07-22T21:45:00.396Z,92.67
2018-07-22T21:47:27.589Z,93.08
2018-07-22T21:49:54.785Z,92.06
2018-07-22T21:52:22.268Z,92.12
2018-07-22T21:54:49.757Z,93.06
2018-07-22T21:57:16.926Z,93.08
2018-07-22T21:59:44.065Z,93.03
2018-07-22T22:02:11.320Z,92.82
2018-07-22T22:04:38.487Z,92.09
2018-07-22T22:07:05.690Z,92.49
2018-07-22T22:09:33.008Z,92.88
2018-07-22T22:12:00.144Z,93.46
2018-07-22T22:14:27.340Z,93.13
2018-07-22T22:16:54.480Z,92.65
2018-07-22T22:19:21.674Z,92.91
2018-07-22T22:21:48.844Z,93.07
2018-07-22T22:24:16.033Z,93.36
2018-07-22T22:26:43.158Z,94.60
2018-07-22T22:29:10.689Z,95.02
2018-07-22T22:31:37.905Z,94.13
2018-07-22T22:34:05.280Z,93.19
2018-07-22T22:36:32.821Z,92.10
2018-07-22T22:38:59.953Z,91.73
2018-07-22T22:41:27.053Z,93.85
2018-07-22T22:43:54.197Z,95.26
2018-07-22T22:46:28.101Z,94.29
2018-07-22T22:48:55.261Z,94.35
2018-07-22T22:51:22.425Z,94.09
2018-07-22T22:53:49.556Z,93.97
2018-07-22T22:56:16.720Z,94.19
2018-07-22T22:58:55.419Z,95.95
2018-07-22T23:01:22.565Z,95.41
2018-07-22T23:03:49.719Z,95.39
2018-07-22T23:06:16.868Z,95.78
2018-07-22T23:08:44.052Z,96.55
2018-07-22T23:11:11.205Z,97.72
2018-07-22T23:13:38.374Z,97.94
2018-07-22T23:16:05.528Z,95.78
2018-07-22T23:18:32.688Z,96.52
2018-07-22T23:20:59.812Z,96.36
2018-07-22T23:23:26.981Z,95.63
2018-07-22T23:25:54.132Z,94.29
2018-07-22T23:28:21.285Z,94.50
2018-07-22T23:30:48.436Z,95.43
2018-07-22T23:33:15.532Z,95.45
2018-07-22T23:35:42.694Z,94.37
2018-07-22T23:38:09.886Z,94.12
2018-07-22T23:40:37.028Z,94.50
2018-07-22T23:43:04.221Z,95.30
2018-07-22T23:45:31.316Z,94.77
2018-07-22T23:47:58.431Z,94.58
2018-07-22T23:50:25.656Z,94.26
2018-07-22T23:52:52.829Z,94.00
2018-07-22T23:55:19.955Z,95.40
2018-07-22T23:57:47.077Z,94.98
